Hastings Natural History Reservation, California Weather observations

Data are for 10 minute period ending at time listed.
 Day   Time   Solar   Ave.   Ave.  Ave.  Vector  Max.   Baro.   Total    
  of    of     Rad.   Air    Rel.  Wind   Wind   Wind  Press.  Precip.   
Year   Day            Temp.  Hum.  Speed  Dir.   Gust                    
2014   (PST)  Kw/m2    F      %     mph   deg.    mph    mb.     in.     
-------------------------------------------------------------------------
 244   15:30   0.74   90.0    24    5.4   252    12.3   946.9    0.00 
 244   15:40   0.72   90.4    24    3.0   253     8.9   947.0    0.00 
 244   15:50   0.70   90.7    23    3.4   263    10.1   947.0    0.00 
 244   16:00   0.68   90.4    22    4.0   258     9.8   947.0    0.00 
 244   16:10   0.66   90.5    22    4.3   254    11.0   946.9    0.00 
 244   16:20   0.61   91.2    22    2.6   319     8.6   946.9    0.00 
 244   16:30   0.60   90.9    22    2.6   352    10.2   947.0    0.00 
 244   16:40   0.58   90.2    23    2.1   323     7.0   947.0    0.00 
 244   16:50   0.55   90.0    23    2.7   331     7.0   947.0    0.00 
 244   17:00   0.52   89.0    24    3.4   264     8.4   947.0    0.00 
 244   17:10   0.49   88.4    25    3.7   264     9.4   946.9    0.00 
 244   17:20   0.46   86.9    27    4.9   251     9.9   947.0    0.00 
 244   17:30   0.43   85.8    28    4.2   252     9.7   947.1    0.00 
 244   17:40   0.39   85.8    28    3.0   260     8.6   947.1    0.00 
 244   17:50   0.36   84.6    29    4.1   244     9.2   947.2    0.00 
 244   18:00   0.33   84.4    31    3.4   255     7.6   947.3    0.00 
 244   18:10   0.29   82.6    33    4.2   244     8.1   947.3    0.00 
 244   18:20   0.26   82.2    34    1.8   269     5.8   947.4    0.00 
 244   18:30   0.22   81.4    36    3.1   252     8.1   947.4    0.00 
 244   18:40   0.18   79.4    38    3.9   250     6.5   947.4    0.00 
 244   18:50   0.14   77.8    39    3.7   248     7.7   947.3    0.00 
 244   19:00   0.03   76.3    40    3.7   246     7.2   947.3    0.00 
 244   19:10   0.01   75.1    40    3.8   234     7.4   947.2    0.00 
 244   19:20   0.01   73.8    42    3.2   232     5.1   947.2    0.00 
 244   19:30   0.00   72.7    44    1.6   224     3.0   947.2    0.00 
 244   19:40   0.00   71.9    45    1.7   217     3.2   947.3    0.00 
 244   19:50   0.00   70.9    46    0.4   212     1.7   947.3    0.00 
 244   20:00   0.00   70.0    48    0.2   216     0.9   947.2    0.00 
 244   20:10   0.00   69.0    48    0.1    60     0.8   947.2    0.00 
 244   20:20   0.00   67.6    50    0.9    44     1.8   947.3    0.00 
 244   20:30   0.00   66.6    51    0.8    47     1.4   947.3    0.00 
 244   20:40   0.00   65.7    52    0.5    40     1.2   947.4    0.00 
 244   20:50   0.00   65.0    52    0.8    43     1.5   947.5    0.00 
 244   21:00   0.00   64.4    53    0.4    46     1.6   947.6    0.00 
 244   21:10   0.00   63.9    52    0.4    67     1.7   947.8    0.00 
 244   21:20   0.00   63.3    52    0.5    50     1.4   947.9    0.00 
 244   21:30   0.00   62.9    52    1.0    52     1.9   947.9    0.00 
 244   21:40   0.00   62.3    52    1.2    43     2.2   948.0    0.00 
 244   21:50   0.00   62.2    53    0.9    45     1.5   948.0    0.00 
 244   22:00   0.00   61.9    53    0.3    34     0.9   948.0    0.00 
 244   22:10   0.00   61.6    52    1.3    45     2.0   948.1    0.00 
 244   22:20   0.00   61.4    52    0.4    40     0.9   948.0    0.00 
 244   22:30   0.00   61.1    52    0.7    49     1.6   948.1    0.00 
 244   22:40   0.00   60.9    52    0.3    42     1.3   948.1    0.00 
 244   22:50   0.00   60.6    52    0.2    39     0.9   948.1    0.00 
 244   23:00   0.00   60.4    52    0.0     0     0.0   948.1    0.00 
 244   23:10   0.00   60.1    53    0.0    31     0.7   948.0    0.00 
 244   23:20   0.00   59.8    53    0.1    42     0.9   948.1    0.00 
 244   23:30   0.00   59.8    53    0.6    55     1.3   948.0    0.00 
 244   23:40   0.00   59.8    53    0.0    25     0.5   948.1    0.00 
 244   23:50   0.00   59.5    53    0.6    56     1.5   948.0    0.00 
 245    0:00   0.00   59.4    53    0.6    64     1.4   948.0    0.00 
 245    0:10   0.00   59.3    53    0.0     0     0.0   948.1    0.00 
 245    0:20   0.00   59.0    54    0.3    58     1.2   948.0    0.00 
 245    0:30   0.00   59.0    54    0.0    68     0.3   948.0    0.00 
 245    0:40   0.00   59.0    54    0.1    41     0.9   948.0    0.00 
 245    0:50   0.00   58.9    54    0.2    46     1.0   947.9    0.00 
 245    1:00   0.00   58.9    54    0.0    53     0.4   947.9    0.00 
 245    1:10   0.00   58.9    54    0.5    48     1.7   947.8    0.00 
 245    1:20   0.00   59.2    55    0.0    52     0.6   947.7    0.00 
 245    1:30   0.00   59.1    55    0.2    48     1.3   947.7    0.00 
 245    1:40   0.00   59.0    56    0.5    55     1.9   947.7    0.00 
 245    1:50   0.00   59.0    56    0.3    62     1.2   947.6    0.00 
 245    2:00   0.00   59.1    56    0.2    53     1.0   947.6    0.00 
 245    2:10   0.00   58.9    57    0.9    56     2.1   947.6    0.00 
 245    2:20   0.00   58.9    57    0.8    52     1.6   947.6    0.00 
 245    2:30   0.00   58.8    57    0.3    56     1.2   947.6    0.00 
 245    2:40   0.00   58.8    58    0.5    50     1.2   947.6    0.00 
 245    2:50   0.00   58.8    57    0.4    54     1.1   947.6    0.00 
 245    3:00   0.00   58.8    57    0.2    49     1.1   947.5    0.00 
 245    3:10   0.00   58.6    57    0.1    51     0.8   947.5    0.00 
 245    3:20   0.00   58.2    58    0.2    46     1.2   947.4    0.00 
 245    3:30   0.00   58.1    58    0.3    41     1.7   947.4    0.00 
 245    3:40   0.00   58.0    58    0.4    45     1.5   947.4    0.00 
 245    3:50   0.00   58.0    58    0.1    47     1.2   947.4    0.00 
 245    4:00   0.00   57.9    58    0.5    54     1.4   947.5    0.00 
 245    4:10   0.00   57.9    58    0.3    63     1.3   947.5    0.00 
 245    4:20   0.00   57.8    58    0.2    52     1.6   947.5    0.00 
 245    4:30   0.00   57.6    59    0.3    52     1.2   947.6    0.00 
 245    4:40   0.00   57.4    59    0.5    61     1.6   947.5    0.00 
 245    4:50   0.00   57.3    59    0.1    52     0.9   947.5    0.00 
 245    5:00   0.00   57.2    59    0.0    37     0.9   947.5    0.00 
 245    5:10   0.00   56.9    60    0.0    36     0.3   947.5    0.00 
 245    5:20   0.00   56.7    61    0.0    40     0.9   947.5    0.00 
 245    5:30   0.00   56.7    60    0.5    60     1.4   947.5    0.00 
 245    5:40   0.00   56.8    60    0.0     0     0.0   947.6    0.00 
 245    5:50   0.00   56.5    60    0.0    46     0.9   947.6    0.00 
 245    6:00   0.00   56.4    60    0.0    38     0.2   947.6    0.00 
 245    6:10   0.00   56.3    61    0.0    56     0.7   947.7    0.00 
 245    6:20   0.00   56.4    61    0.0     0     0.0   947.7    0.00 
 245    6:30   0.00   56.4    61    0.2    48     1.2   947.8    0.00 
 245    6:40   0.00   56.7    60    0.0     0     0.0   947.8    0.00 
 245    6:50   0.00   56.6    60    0.1    54     0.9   948.0    0.00 
 245    7:00   0.00   56.8    60    0.0    53     0.3   948.0    0.00 
 245    7:10   0.00   57.0    60    0.1    43     0.9   948.1    0.00 
 245    7:20   0.01   57.3    59    0.0    61     0.1   948.2    0.00 
 245    7:30   0.01   57.5    59    0.5    56     1.5   948.2    0.00 
 245    7:40   0.01   58.0    58    0.1    68     0.8   948.2    0.00 
 245    7:50   0.01   58.5    58    0.4    54     1.0   948.3    0.00 
 245    8:00   0.01   59.3    57    0.3    87     0.9   948.3    0.00 
 245    8:10   0.02   60.6    55    0.5    76     1.2   948.3    0.00 
 245    8:20   0.03   62.8    51    1.1    67     1.5   948.4    0.00 
 245    8:30   0.23   65.1    48    0.4   194     1.8   948.4    0.00 
 245    8:40   0.28   69.9    41    2.9   237     5.0   948.5    0.00 
 245    8:50   0.31   71.6    38    2.5   222     4.5   948.4    0.00 
 245    9:00   0.35   71.7    38    3.4   240     5.6   948.2    0.00 
 245    9:10   0.39   71.9    38    2.7   236     5.1   948.1    0.00 
 245    9:20   0.41   73.9    36    2.3   228     4.1   948.0    0.00 
 245    9:30   0.45   76.2    33    1.5   216     3.5   948.0    0.00 
 245    9:40   0.48   77.2    32    2.3   245     5.4   948.0    0.00 
 245    9:50   0.52   77.6    32    2.9   252     6.8   948.0    0.00 
 245   10:00   0.55   77.6    32    3.1   251     6.6   948.1    0.00 
 245   10:10   0.57   77.4    33    2.5   253     5.0   948.2    0.00 
 245   10:20   0.61   77.0    34    3.5   247     6.9   948.2    0.00 
 245   10:30   0.63   78.8    33    1.3   265     4.2   948.3    0.00 
 245   10:40   0.66   79.8    32    2.3   264     7.2   948.5    0.00 
 245   10:50   0.69   77.6    34    3.9   255     8.1   948.4    0.00 
 245   11:00   0.71   78.2    36    2.0   256     6.4   948.6    0.00 
 245   11:10   0.73   77.9    37    3.1   252     7.0   948.6    0.00 
 245   11:20   0.75   77.5    38    3.3   250     8.3   948.7    0.00 
 245   11:30   0.73   77.3    38    3.3   257     8.1   948.7    0.00 
 245   11:40   0.78   77.0    39    4.0   254     7.9   948.8    0.00 
 245   11:50   0.79   76.7    40    3.5   255     9.0   948.8    0.00 
 245   12:00   0.80   78.2    39    2.6   255     6.8   948.8    0.00 
 245   12:10   0.81   78.0    39    4.8   235     9.1   948.7    0.00 
 245   12:20   0.63   77.6    39    7.4   241    11.2   948.7    0.00 
 245   12:30   0.76   78.6    40    3.9   247     8.8   948.7    0.00 
 245   12:40   0.84   79.1    42    2.7   262     7.4   948.7    0.00 
 245   12:50   0.69   78.4    44    5.0   249    10.2   948.6    0.00 
 245   13:00   0.71   77.8    45    4.9   251     9.9   948.6    0.00 
 245   13:10   0.65   77.9    45    4.7   253    11.1   948.5    0.00 
 245   13:20   0.65   77.7    45    5.2   242    11.3   948.4    0.00 
 245   13:30   0.66   78.3    44    6.7   238    12.8   948.3    0.00 
 245   13:40   0.66   78.6    44    4.6   248    11.2   948.3    0.00 
 245   13:50   0.71   79.1    43    5.7   246    10.5   948.2    0.00 
 245   14:00   0.67   79.3    42    3.3   254     8.7   948.3    0.00 
 245   14:10   0.69   80.5    41    4.4   252    10.1   948.3    0.00 
 245   14:20   0.67   80.8    40    3.7   259     9.6   948.3    0.00 
 245   14:30   0.74   81.1    40    4.8   254    13.0   948.2    0.00 
 245   14:40   0.70   80.9    40    4.1   260     9.7   948.2    0.00 
 245   14:50   0.74   81.3    41    4.3   254    10.2   948.1    0.00 
 245   15:00   0.66   82.1    39    2.4   259     7.7   948.1    0.00 
 245   15:10   0.70   82.5    38    3.4   266    10.1   947.9    0.00 
 245   15:20   0.75   82.3    38    4.8   249    10.2   947.8    0.00 

Return to Hastings Natural History Reservation graphs page.


Western Regional Climate Center,wrcc@dri.edu